<?xml version="1.0" encoding="UTF-8" standalone="no" ?>
<gpx xmlns="http://www.topografix.com/GPX/1/1" xmlns:xsi="http://www.w3.org/2001/XMLSchema-instance" xsi:schemaLocation="http://www.topografix.com/GPX/1/1 http://www.topografix.com/GPX/1/1/gpx.xsd" version="1.1" creator="VisuGPX - https://www.visugpx.com">
  <metadata>
    <name>TET_E-11-EUS-S_20241226</name>
    <desc><![CDATA[

]]></desc>
  </metadata>
  <wpt lat="42.61943" lon="-2.89111">
    <ele>686.6</ele>
    <name><![CDATA[INFO_EasyGoBackPoint:GNR05:1A]]></name>
    <desc><![CDATA[EasyGoBackPoint:GNR05:1A]]></desc>
  </wpt>
  <wpt lat="42.61064" lon="-2.88649">
    <ele>574.6</ele>
    <name><![CDATA[INFO_EasyGoBackPoint:GNR05:1B]]></name>
    <desc><![CDATA[EasyGoBackPoint:GNR05:1B]]></desc>
  </wpt>
  <trk>
    <name><![CDATA[TET_E-11-EUS-S_20241226]]></name>
    <extensions>
      <line xmlns="http://www.topografix.com/GPX/gpx_style/0/2">
        <color>880000</color>
        <width>4</width>
      </line>
    </extensions>
    <trkseg>
      <trkpt lat="42.61086" lon="-2.49894">
        <ele>877.2</ele>
        <time>2023-07-14T20:38:26.000+02:00</time>
      </trkpt>
      <trkpt lat="42.61075" lon="-2.49967">
        <ele>873.3</ele>
        <time>2023-07-14T20:38:34.000+02:00</time>
      </trkpt>
      <trkpt lat="42.61135" lon="-2.50264">
        <ele>892</ele>
        <time>2023-07-14T20:39:09.000+02:00</time>
      </trkpt>
      <trkpt lat="42.61255" lon="-2.5046">
        <ele>905.5</ele>
        <time>2023-07-14T20:39:37.000+02:00</time>
      </trkpt>
      <trkpt lat="42.61265" lon="-2.50579">
        <ele>914.6</ele>
        <time>2023-07-14T20:39:51.000+02:00</time>
      </trkpt>
      <trkpt lat="42.61315" lon="-2.50658">
        <ele>921.4</ele>
        <time>2023-07-14T20:40:02.000+02:00</time>
      </trkpt>
      <trkpt lat="42.6133" lon="-2.50768">
        <ele>914.9</ele>
        <time>2023-07-14T20:40:15.000+02:00</time>
      </trkpt>
      <trkpt lat="42.6126" lon="-2.50702">
        <ele>899</ele>
        <time>2023-07-14T20:40:28.000+02:00</time>
      </trkpt>
      <trkpt lat="42.61128" lon="-2.50802">
        <ele>870.3</ele>
        <time>2023-07-14T20:40:51.000+02:00</time>
      </trkpt>
      <trkpt lat="42.61073" lon="-2.51026">
        <ele>849.8</ele>
        <time>2023-07-14T20:41:18.000+02:00</time>
      </trkpt>
      <trkpt lat="42.60947" lon="-2.51087">
        <ele>827</ele>
        <time>2023-07-14T20:41:38.000+02:00</time>
      </trkpt>
      <trkpt lat="42.60748" lon="-2.51105">
        <ele>797.3</ele>
        <time>2023-07-14T20:42:09.000+02:00</time>
      </trkpt>
      <trkpt lat="42.60721" lon="-2.51144">
        <ele>790.7</ele>
        <time>2023-07-14T20:42:15.000+02:00</time>
      </trkpt>
      <trkpt lat="42.6077" lon="-2.5124">
        <ele>783.3</ele>
        <time>2023-07-14T20:42:28.000+02:00</time>
      </trkpt>
      <trkpt lat="42.6076" lon="-2.51291">
        <ele>777.9</ele>
        <time>2023-07-14T20:42:34.000+02:00</time>
      </trkpt>
      <trkpt lat="42.60585" lon="-2.51313">
        <ele>757.2</ele>
        <time>2023-07-14T20:43:01.000+02:00</time>
      </trkpt>
      <trkpt lat="42.60378" lon="-2.51403">
        <ele>732.7</ele>
        <time>2023-07-14T20:43:34.000+02:00</time>
      </trkpt>
      <trkpt lat="42.60237" lon="-2.5163">
        <ele>709.7</ele>
        <time>2023-07-14T20:44:07.000+02:00</time>
      </trkpt>
      <trkpt lat="42.60097" lon="-2.51567">
        <ele>705.1</ele>
        <time>2023-07-14T20:44:30.000+02:00</time>
      </trkpt>
      <trkpt lat="42.60023" lon="-2.51576">
        <ele>703.1</ele>
        <time>2023-07-14T20:44:41.000+02:00</time>
      </trkpt>
      <trkpt lat="42.59897" lon="-2.51608">
        <ele>701</ele>
        <time>2023-07-14T20:45:01.000+02:00</time>
      </trkpt>
      <trkpt lat="42.59667" lon="-2.5174">
        <ele>679.8</ele>
        <time>2023-07-14T20:45:39.000+02:00</time>
      </trkpt>
      <trkpt lat="42.5968" lon="-2.5182">
        <ele>677.2</ele>
        <time>2023-07-14T20:45:48.000+02:00</time>
      </trkpt>
      <trkpt lat="42.59767" lon="-2.5178">
        <ele>679.7</ele>
        <time>2023-07-14T20:46:02.000+02:00</time>
      </trkpt>
      <trkpt lat="42.59852" lon="-2.5179">
        <ele>689.1</ele>
        <time>2023-07-14T20:46:15.000+02:00</time>
      </trkpt>
      <trkpt lat="42.60259" lon="-2.52231">
        <ele>736.1</ele>
        <time>2023-07-14T20:47:35.000+02:00</time>
      </trkpt>
      <trkpt lat="42.60307" lon="-2.5231">
        <ele>741.6</ele>
        <time>2023-07-14T20:47:46.000+02:00</time>
      </trkpt>
      <trkpt lat="42.60322" lon="-2.52404">
        <ele>758.8</ele>
        <time>2023-07-14T20:47:57.000+02:00</time>
      </trkpt>
      <trkpt lat="42.6028" lon="-2.52443">
        <ele>764.1</ele>
        <time>2023-07-14T20:48:05.000+02:00</time>
      </trkpt>
      <trkpt lat="42.60249" lon="-2.52619">
        <ele>779.6</ele>
        <time>2023-07-14T20:48:25.000+02:00</time>
      </trkpt>
      <trkpt lat="42.6038" lon="-2.52751">
        <ele>774.2</ele>
        <time>2023-07-14T20:48:50.000+02:00</time>
      </trkpt>
      <trkpt lat="42.60361" lon="-2.52817">
        <ele>782.6</ele>
        <time>2023-07-14T20:48:58.000+02:00</time>
      </trkpt>
      <trkpt lat="42.60365" lon="-2.52959">
        <ele>784.6</ele>
        <time>2023-07-14T20:49:14.000+02:00</time>
      </trkpt>
      <trkpt lat="42.6045" lon="-2.53081">
        <ele>788.6</ele>
        <time>2023-07-14T20:49:33.000+02:00</time>
      </trkpt>
      <trkpt lat="42.60524" lon="-2.53085">
        <ele>791.8</ele>
        <time>2023-07-14T20:49:44.000+02:00</time>
      </trkpt>
      <trkpt lat="42.60575" lon="-2.53134">
        <ele>799.1</ele>
        <time>2023-07-14T20:49:54.000+02:00</time>
      </trkpt>
      <trkpt lat="42.60423" lon="-2.53403">
        <ele>806.9</ele>
        <time>2023-07-14T20:50:32.000+02:00</time>
      </trkpt>
      <trkpt lat="42.60408" lon="-2.5357">
        <ele>807.2</ele>
        <time>2023-07-14T20:50:51.000+02:00</time>
      </trkpt>
      <trkpt lat="42.60338" lon="-2.53692">
        <ele>800</ele>
        <time>2023-07-14T20:51:08.000+02:00</time>
      </trkpt>
      <trkpt lat="42.60324" lon="-2.53771">
        <ele>808.5</ele>
        <time>2023-07-14T20:51:18.000+02:00</time>
      </trkpt>
      <trkpt lat="42.60335" lon="-2.53905">
        <ele>813.3</ele>
        <time>2023-07-14T20:51:33.000+02:00</time>
      </trkpt>
      <trkpt lat="42.6038" lon="-2.54081">
        <ele>822.3</ele>
        <time>2023-07-14T20:51:54.000+02:00</time>
      </trkpt>
      <trkpt lat="42.60338" lon="-2.54187">
        <ele>828</ele>
        <time>2023-07-14T20:52:07.000+02:00</time>
      </trkpt>
      <trkpt lat="42.60265" lon="-2.54205">
        <ele>827.4</ele>
        <time>2023-07-14T20:52:18.000+02:00</time>
      </trkpt>
      <trkpt lat="42.60186" lon="-2.54063">
        <ele>814.7</ele>
        <time>2023-07-14T20:52:38.000+02:00</time>
      </trkpt>
      <trkpt lat="42.60055" lon="-2.53931">
        <ele>807.7</ele>
        <time>2023-07-14T20:53:03.000+02:00</time>
      </trkpt>
      <trkpt lat="42.59937" lon="-2.53887">
        <ele>808</ele>
        <time>2023-07-14T20:53:22.000+02:00</time>
      </trkpt>
      <trkpt lat="42.59888" lon="-2.53957">
        <ele>801.5</ele>
        <time>2023-07-14T20:53:33.000+02:00</time>
      </trkpt>
      <trkpt lat="42.59861" lon="-2.54187">
        <ele>805.6</ele>
        <time>2023-07-14T20:53:59.000+02:00</time>
      </trkpt>
      <trkpt lat="42.59909" lon="-2.54394">
        <ele>804.1</ele>
        <time>2023-07-14T20:54:23.000+02:00</time>
      </trkpt>
      <trkpt lat="42.59963" lon="-2.54466">
        <ele>799.1</ele>
        <time>2023-07-14T20:54:35.000+02:00</time>
      </trkpt>
      <trkpt lat="42.60103" lon="-2.54513">
        <ele>793.4</ele>
        <time>2023-07-14T20:54:57.000+02:00</time>
      </trkpt>
      <trkpt lat="42.60002" lon="-2.54749">
        <ele>763.8</ele>
        <time>2023-07-14T20:55:28.000+02:00</time>
      </trkpt>
      <trkpt lat="42.59987" lon="-2.5488">
        <ele>751.3</ele>
        <time>2023-07-14T20:55:43.000+02:00</time>
      </trkpt>
      <trkpt lat="42.59936" lon="-2.54906">
        <ele>736.3</ele>
        <time>2023-07-14T20:55:51.000+02:00</time>
      </trkpt>
      <trkpt lat="42.59975" lon="-2.54988">
        <ele>731</ele>
        <time>2023-07-14T20:56:02.000+02:00</time>
      </trkpt>
      <trkpt lat="42.59814" lon="-2.55033">
        <ele>740.6</ele>
        <time>2023-07-14T20:56:27.000+02:00</time>
      </trkpt>
      <trkpt lat="42.59743" lon="-2.55168">
        <ele>741.9</ele>
        <time>2023-07-14T20:56:46.000+02:00</time>
      </trkpt>
      <trkpt lat="42.59646" lon="-2.55276">
        <ele>739.3</ele>
        <time>2023-07-14T20:57:05.000+02:00</time>
      </trkpt>
      <trkpt lat="42.59602" lon="-2.55274">
        <ele>734.5</ele>
        <time>2023-07-14T20:57:11.000+02:00</time>
      </trkpt>
      <trkpt lat="42.59634" lon="-2.56018">
        <ele>810.4</ele>
        <time>2023-07-14T20:58:35.000+02:00</time>
      </trkpt>
      <trkpt lat="42.59724" lon="-2.56225">
        <ele>846.7</ele>
        <time>2023-07-14T20:59:02.000+02:00</time>
      </trkpt>
      <trkpt lat="42.59631" lon="-2.56432">
        <ele>865.2</ele>
        <time>2023-07-14T20:59:30.000+02:00</time>
      </trkpt>
      <trkpt lat="42.59676" lon="-2.56594">
        <ele>858.5</ele>
        <time>2023-07-14T20:59:49.000+02:00</time>
      </trkpt>
      <trkpt lat="42.59672" lon="-2.56726">
        <ele>850.8</ele>
        <time>2023-07-14T21:00:04.000+02:00</time>
      </trkpt>
      <trkpt lat="42.59596" lon="-2.57138">
        <ele>838.2</ele>
        <time>2023-07-14T21:00:52.000+02:00</time>
      </trkpt>
      <trkpt lat="42.59539" lon="-2.5731">
        <ele>835.1</ele>
        <time>2023-07-14T21:01:13.000+02:00</time>
      </trkpt>
      <trkpt lat="42.59443" lon="-2.57472">
        <ele>827.2</ele>
        <time>2023-07-14T21:01:36.000+02:00</time>
      </trkpt>
      <trkpt lat="42.59424" lon="-2.57389">
        <ele>815.2</ele>
        <time>2023-07-14T21:01:46.000+02:00</time>
      </trkpt>
      <trkpt lat="42.59386" lon="-2.57395">
        <ele>810.1</ele>
        <time>2023-07-14T21:01:52.000+02:00</time>
      </trkpt>
      <trkpt lat="42.5915" lon="-2.57256">
        <ele>801.8</ele>
        <time>2023-07-14T21:02:31.000+02:00</time>
      </trkpt>
      <trkpt lat="42.59086" lon="-2.57269">
        <ele>799.4</ele>
        <time>2023-07-14T21:02:41.000+02:00</time>
      </trkpt>
      <trkpt lat="42.58906" lon="-2.57356">
        <ele>790.4</ele>
        <time>2023-07-14T21:03:10.000+02:00</time>
      </trkpt>
      <trkpt lat="42.58791" lon="-2.57508">
        <ele>776.7</ele>
        <time>2023-07-14T21:03:35.000+02:00</time>
      </trkpt>
      <trkpt lat="42.58436" lon="-2.57656">
        <ele>750.8</ele>
        <time>2023-07-14T21:04:32.000+02:00</time>
      </trkpt>
      <trkpt lat="42.58367" lon="-2.57716">
        <ele>739.7</ele>
        <time>2023-07-14T21:04:44.000+02:00</time>
      </trkpt>
      <trkpt lat="42.58323" lon="-2.57854">
        <ele>720.5</ele>
        <time>2023-07-14T21:05:01.000+02:00</time>
      </trkpt>
      <trkpt lat="42.58229" lon="-2.57903">
        <ele>699.2</ele>
        <time>2023-07-14T21:05:17.000+02:00</time>
      </trkpt>
      <trkpt lat="42.58176" lon="-2.58017">
        <ele>681.9</ele>
        <time>2023-07-14T21:05:32.000+02:00</time>
      </trkpt>
      <trkpt lat="42.58102" lon="-2.58046">
        <ele>671.8</ele>
        <time>2023-07-14T21:05:43.000+02:00</time>
      </trkpt>
      <trkpt lat="42.5783" lon="-2.58027">
        <ele>644.7</ele>
        <time>2023-07-14T21:06:25.000+02:00</time>
      </trkpt>
      <trkpt lat="42.57735" lon="-2.5815">
        <ele>630.5</ele>
        <time>2023-07-14T21:06:45.000+02:00</time>
      </trkpt>
      <trkpt lat="42.57411" lon="-2.58093">
        <ele>600.2</ele>
        <time>2023-07-14T21:07:35.000+02:00</time>
      </trkpt>
      <trkpt lat="42.57418" lon="-2.58383">
        <ele>608.9</ele>
        <time>2023-07-14T21:08:08.000+02:00</time>
      </trkpt>
      <trkpt lat="42.57371" lon="-2.58789">
        <ele>621.3</ele>
        <time>2023-07-14T21:08:54.000+02:00</time>
      </trkpt>
      <trkpt lat="42.57434" lon="-2.59628">
        <ele>635.8</ele>
        <time>2023-07-14T21:10:29.000+02:00</time>
      </trkpt>
      <trkpt lat="42.57605" lon="-2.60233">
        <ele>647</ele>
        <time>2023-07-14T21:11:42.000+02:00</time>
      </trkpt>
      <trkpt lat="42.57604" lon="-2.60708">
        <ele>653</ele>
        <time>2023-07-14T21:12:35.000+02:00</time>
      </trkpt>
      <trkpt lat="42.57791" lon="-2.61328">
        <ele>641.4</ele>
        <time>2023-07-14T21:13:50.000+02:00</time>
      </trkpt>
      <trkpt lat="42.578" lon="-2.61528">
        <ele>638.1</ele>
        <time>2023-07-14T21:14:13.000+02:00</time>
      </trkpt>
      <trkpt lat="42.57946" lon="-2.61988">
        <ele>638.5</ele>
        <time>2023-07-14T21:15:09.000+02:00</time>
      </trkpt>
      <trkpt lat="42.57946" lon="-2.62237">
        <ele>627.9</ele>
        <time>2023-07-14T21:15:37.000+02:00</time>
      </trkpt>
      <trkpt lat="42.57875" lon="-2.62363">
        <ele>623.2</ele>
        <time>2023-07-14T21:15:55.000+02:00</time>
      </trkpt>
      <trkpt lat="42.57867" lon="-2.62598">
        <ele>633.4</ele>
        <time>2023-07-14T21:16:22.000+02:00</time>
      </trkpt>
      <trkpt lat="42.58114" lon="-2.63368">
        <ele>648.5</ele>
        <time>2023-07-14T21:17:56.000+02:00</time>
      </trkpt>
      <trkpt lat="42.58002" lon="-2.63813">
        <ele>640.9</ele>
        <time>2023-07-14T21:18:49.000+02:00</time>
      </trkpt>
      <trkpt lat="42.58112" lon="-2.64135">
        <ele>655.6</ele>
        <time>2023-07-14T21:19:29.000+02:00</time>
      </trkpt>
      <trkpt lat="42.57971" lon="-2.64838">
        <ele>648.7</ele>
        <time>2023-07-14T21:20:51.000+02:00</time>
      </trkpt>
      <trkpt lat="42.58104" lon="-2.65025">
        <ele>664.9</ele>
        <time>2023-07-14T21:21:20.000+02:00</time>
      </trkpt>
      <trkpt lat="42.58127" lon="-2.65094">
        <ele>666.7</ele>
        <time>2023-07-14T21:21:29.000+02:00</time>
      </trkpt>
      <trkpt lat="42.58114" lon="-2.65201">
        <ele>675.2</ele>
        <time>2023-07-14T21:21:41.000+02:00</time>
      </trkpt>
      <trkpt lat="42.5803" lon="-2.65432">
        <ele>689.8</ele>
        <time>2023-07-14T21:22:10.000+02:00</time>
      </trkpt>
      <trkpt lat="42.58064" lon="-2.6546">
        <ele>692.9</ele>
        <time>2023-07-14T21:22:16.000+02:00</time>
      </trkpt>
      <trkpt lat="42.58331" lon="-2.65505">
        <ele>724.4</ele>
        <time>2023-07-14T21:22:57.000+02:00</time>
      </trkpt>
      <trkpt lat="42.58629" lon="-2.65629">
        <ele>768.4</ele>
        <time>2023-07-14T21:23:45.000+02:00</time>
      </trkpt>
      <trkpt lat="42.58661" lon="-2.65822">
        <ele>787.1</ele>
        <time>2023-07-14T21:24:07.000+02:00</time>
      </trkpt>
      <trkpt lat="42.58723" lon="-2.65891">
        <ele>800.5</ele>
        <time>2023-07-14T21:24:19.000+02:00</time>
      </trkpt>
      <trkpt lat="42.58753" lon="-2.65969">
        <ele>807.9</ele>
        <time>2023-07-14T21:24:29.000+02:00</time>
      </trkpt>
      <trkpt lat="42.58754" lon="-2.66149">
        <ele>819.6</ele>
        <time>2023-07-14T21:24:49.000+02:00</time>
      </trkpt>
      <trkpt lat="42.58735" lon="-2.66187">
        <ele>821.4</ele>
        <time>2023-07-14T21:24:55.000+02:00</time>
      </trkpt>
      <trkpt lat="42.5863" lon="-2.66234">
        <ele>824.2</ele>
        <time>2023-07-14T21:25:11.000+02:00</time>
      </trkpt>
      <trkpt lat="42.5856" lon="-2.663">
        <ele>827</ele>
        <time>2023-07-14T21:25:24.000+02:00</time>
      </trkpt>
      <trkpt lat="42.58464" lon="-2.66506">
        <ele>837.3</ele>
        <time>2023-07-14T21:25:52.000+02:00</time>
      </trkpt>
      <trkpt lat="42.58459" lon="-2.66687">
        <ele>850.7</ele>
        <time>2023-07-14T21:26:12.000+02:00</time>
      </trkpt>
      <trkpt lat="42.5848" lon="-2.66696">
        <ele>857.4</ele>
        <time>2023-07-14T21:26:15.000+02:00</time>
      </trkpt>
      <trkpt lat="42.58535" lon="-2.66548">
        <ele>870.6</ele>
        <time>2023-07-14T21:26:34.000+02:00</time>
      </trkpt>
      <trkpt lat="42.58626" lon="-2.66474">
        <ele>884.4</ele>
        <time>2023-07-14T21:26:50.000+02:00</time>
      </trkpt>
      <trkpt lat="42.58639" lon="-2.66496">
        <ele>888.8</ele>
        <time>2023-07-14T21:26:53.000+02:00</time>
      </trkpt>
      <trkpt lat="42.58599" lon="-2.66589">
        <ele>896.9</ele>
        <time>2023-07-14T21:27:06.000+02:00</time>
      </trkpt>
      <trkpt lat="42.58598" lon="-2.66663">
        <ele>904.7</ele>
        <time>2023-07-14T21:27:14.000+02:00</time>
      </trkpt>
      <trkpt lat="42.58706" lon="-2.6688">
        <ele>918.9</ele>
        <time>2023-07-14T21:27:43.000+02:00</time>
      </trkpt>
      <trkpt lat="42.58737" lon="-2.66878">
        <ele>923.4</ele>
        <time>2023-07-14T21:27:48.000+02:00</time>
      </trkpt>
      <trkpt lat="42.58907" lon="-2.66689">
        <ele>950.2</ele>
        <time>2023-07-14T21:28:22.000+02:00</time>
      </trkpt>
      <trkpt lat="42.59013" lon="-2.66953">
        <ele>972.8</ele>
        <time>2023-07-14T21:28:55.000+02:00</time>
      </trkpt>
      <trkpt lat="42.59054" lon="-2.67158">
        <ele>988.3</ele>
        <time>2023-07-14T21:29:19.000+02:00</time>
      </trkpt>
      <trkpt lat="42.59052" lon="-2.67218">
        <ele>990.8</ele>
        <time>2023-07-14T21:29:26.000+02:00</time>
      </trkpt>
      <trkpt lat="42.59011" lon="-2.67302">
        <ele>997.8</ele>
        <time>2023-07-14T21:29:37.000+02:00</time>
      </trkpt>
      <trkpt lat="42.59023" lon="-2.67536">
        <ele>1010.8</ele>
        <time>2023-07-14T21:30:04.000+02:00</time>
      </trkpt>
      <trkpt lat="42.59079" lon="-2.67945">
        <ele>1036.6</ele>
        <time>2023-07-14T21:30:51.000+02:00</time>
      </trkpt>
      <trkpt lat="42.59144" lon="-2.68093">
        <ele>1051.6</ele>
        <time>2023-07-14T21:31:10.000+02:00</time>
      </trkpt>
      <trkpt lat="42.59292" lon="-2.68238">
        <ele>1069</ele>
        <time>2023-07-14T21:31:38.000+02:00</time>
      </trkpt>
      <trkpt lat="42.59451" lon="-2.68099">
        <ele>1084.3</ele>
        <time>2023-07-14T21:32:07.000+02:00</time>
      </trkpt>
      <trkpt lat="42.5981" lon="-2.68411">
        <ele>1082.3</ele>
        <time>2023-07-14T21:33:12.000+02:00</time>
      </trkpt>
      <trkpt lat="42.59874" lon="-2.6843">
        <ele>1074.9</ele>
        <time>2023-07-14T21:33:22.000+02:00</time>
      </trkpt>
      <trkpt lat="42.59947" lon="-2.68409">
        <ele>1068.3</ele>
        <time>2023-07-14T21:33:34.000+02:00</time>
      </trkpt>
      <trkpt lat="42.59921" lon="-2.68501">
        <ele>1071.4</ele>
        <time>2023-07-14T21:33:45.000+02:00</time>
      </trkpt>
      <trkpt lat="42.59929" lon="-2.68559">
        <ele>1072.8</ele>
        <time>2023-07-14T21:33:51.000+02:00</time>
      </trkpt>
      <trkpt lat="42.60032" lon="-2.68859">
        <ele>1092.3</ele>
        <time>2023-07-14T21:34:29.000+02:00</time>
      </trkpt>
      <trkpt lat="42.60042" lon="-2.69122">
        <ele>1101.6</ele>
        <time>2023-07-14T21:34:58.000+02:00</time>
      </trkpt>
      <trkpt lat="42.60092" lon="-2.69242">
        <ele>1113.1</ele>
        <time>2023-07-14T21:35:14.000+02:00</time>
      </trkpt>
      <trkpt lat="42.60159" lon="-2.69561">
        <ele>1085.8</ele>
        <time>2023-07-14T21:35:51.000+02:00</time>
      </trkpt>
      <trkpt lat="42.60048" lon="-2.69899">
        <ele>1109.9</ele>
        <time>2023-07-14T21:36:33.000+02:00</time>
      </trkpt>
      <trkpt lat="42.60012" lon="-2.70079">
        <ele>1114.8</ele>
        <time>2023-07-14T21:36:54.000+02:00</time>
      </trkpt>
      <trkpt lat="42.60076" lon="-2.70259">
        <ele>1108</ele>
        <time>2023-07-14T21:37:16.000+02:00</time>
      </trkpt>
      <trkpt lat="42.60059" lon="-2.70425">
        <ele>1106.8</ele>
        <time>2023-07-14T21:37:35.000+02:00</time>
      </trkpt>
      <trkpt lat="42.60217" lon="-2.70649">
        <ele>1101.8</ele>
        <time>2023-07-14T21:38:10.000+02:00</time>
      </trkpt>
      <trkpt lat="42.60247" lon="-2.70983">
        <ele>1102.1</ele>
        <time>2023-07-14T21:38:48.000+02:00</time>
      </trkpt>
      <trkpt lat="42.60331" lon="-2.71102">
        <ele>1104.3</ele>
        <time>2023-07-14T21:39:06.000+02:00</time>
      </trkpt>
      <trkpt lat="42.60369" lon="-2.71206">
        <ele>1094.7</ele>
        <time>2023-07-14T21:39:19.000+02:00</time>
      </trkpt>
      <trkpt lat="42.60392" lon="-2.71476">
        <ele>1079.7</ele>
        <time>2023-07-14T21:39:50.000+02:00</time>
      </trkpt>
      <trkpt lat="42.60406" lon="-2.71493">
        <ele>1079.4</ele>
        <time>2023-07-14T21:39:53.000+02:00</time>
      </trkpt>
      <trkpt lat="42.60555" lon="-2.71448">
        <ele>1067.4</ele>
        <time>2023-07-14T21:40:16.000+02:00</time>
      </trkpt>
      <trkpt lat="42.60687" lon="-2.71567">
        <ele>1051</ele>
        <time>2023-07-14T21:40:40.000+02:00</time>
      </trkpt>
      <trkpt lat="42.60758" lon="-2.71671">
        <ele>1036.2</ele>
        <time>2023-07-14T21:40:56.000+02:00</time>
      </trkpt>
      <trkpt lat="42.60927" lon="-2.72252">
        <ele>995.8</ele>
        <time>2023-07-14T21:42:06.000+02:00</time>
      </trkpt>
      <trkpt lat="42.61005" lon="-2.723">
        <ele>984.4</ele>
        <time>2023-07-14T21:42:19.000+02:00</time>
      </trkpt>
      <trkpt lat="42.61093" lon="-2.72296">
        <ele>968.3</ele>
        <time>2023-07-14T21:42:33.000+02:00</time>
      </trkpt>
      <trkpt lat="42.61158" lon="-2.72326">
        <ele>955.5</ele>
        <time>2023-07-14T21:42:43.000+02:00</time>
      </trkpt>
      <trkpt lat="42.61556" lon="-2.72911">
        <ele>953.4</ele>
        <time>2023-07-14T21:44:13.000+02:00</time>
      </trkpt>
      <trkpt lat="42.61645" lon="-2.72931">
        <ele>952.2</ele>
        <time>2023-07-14T21:44:27.000+02:00</time>
      </trkpt>
      <trkpt lat="42.61761" lon="-2.7308">
        <ele>940.3</ele>
        <time>2023-07-14T21:44:51.000+02:00</time>
      </trkpt>
      <trkpt lat="42.61425" lon="-2.73047">
        <ele>920.5</ele>
        <time>2023-07-14T21:45:43.000+02:00</time>
      </trkpt>
      <trkpt lat="42.61165" lon="-2.72846">
        <ele>907.9</ele>
        <time>2023-07-14T21:46:28.000+02:00</time>
      </trkpt>
      <trkpt lat="42.61088" lon="-2.7286">
        <ele>901.9</ele>
        <time>2023-07-14T21:46:40.000+02:00</time>
      </trkpt>
      <trkpt lat="42.61109" lon="-2.73112">
        <ele>888.5</ele>
        <time>2023-07-14T21:47:09.000+02:00</time>
      </trkpt>
      <trkpt lat="42.61085" lon="-2.73136">
        <ele>885.9</ele>
        <time>2023-07-14T21:47:13.000+02:00</time>
      </trkpt>
      <trkpt lat="42.61038" lon="-2.73099">
        <ele>881.1</ele>
        <time>2023-07-14T21:47:22.000+02:00</time>
      </trkpt>
      <trkpt lat="42.61031" lon="-2.73181">
        <ele>877.1</ele>
        <time>2023-07-14T21:47:31.000+02:00</time>
      </trkpt>
      <trkpt lat="42.61161" lon="-2.73333">
        <ele>869.6</ele>
        <time>2023-07-14T21:47:57.000+02:00</time>
      </trkpt>
      <trkpt lat="42.61199" lon="-2.7349">
        <ele>861.4</ele>
        <time>2023-07-14T21:48:15.000+02:00</time>
      </trkpt>
      <trkpt lat="42.61259" lon="-2.73535">
        <ele>855.7</ele>
        <time>2023-07-14T21:48:26.000+02:00</time>
      </trkpt>
      <trkpt lat="42.61316" lon="-2.73488">
        <ele>853.5</ele>
        <time>2023-07-14T21:48:36.000+02:00</time>
      </trkpt>
      <trkpt lat="42.61411" lon="-2.73476">
        <ele>846.5</ele>
        <time>2023-07-14T21:48:51.000+02:00</time>
      </trkpt>
      <trkpt lat="42.61471" lon="-2.73505">
        <ele>842.7</ele>
        <time>2023-07-14T21:49:01.000+02:00</time>
      </trkpt>
      <trkpt lat="42.61491" lon="-2.73547">
        <ele>839.2</ele>
        <time>2023-07-14T21:49:06.000+02:00</time>
      </trkpt>
      <trkpt lat="42.61446" lon="-2.73609">
        <ele>838.2</ele>
        <time>2023-07-14T21:49:16.000+02:00</time>
      </trkpt>
      <trkpt lat="42.61406" lon="-2.73804">
        <ele>830.1</ele>
        <time>2023-07-14T21:49:39.000+02:00</time>
      </trkpt>
      <trkpt lat="42.61297" lon="-2.73859">
        <ele>819.4</ele>
        <time>2023-07-14T21:49:56.000+02:00</time>
      </trkpt>
      <trkpt lat="42.61229" lon="-2.74007">
        <ele>812.5</ele>
        <time>2023-07-14T21:50:16.000+02:00</time>
      </trkpt>
      <trkpt lat="42.61258" lon="-2.74116">
        <ele>808</ele>
        <time>2023-07-14T21:50:29.000+02:00</time>
      </trkpt>
      <trkpt lat="42.61315" lon="-2.74199">
        <ele>802.8</ele>
        <time>2023-07-14T21:50:42.000+02:00</time>
      </trkpt>
      <trkpt lat="42.61308" lon="-2.74316">
        <ele>796.6</ele>
        <time>2023-07-14T21:50:55.000+02:00</time>
      </trkpt>
      <trkpt lat="42.61451" lon="-2.74391">
        <ele>791.1</ele>
        <time>2023-07-14T21:51:18.000+02:00</time>
      </trkpt>
      <trkpt lat="42.6146" lon="-2.7445">
        <ele>790.1</ele>
        <time>2023-07-14T21:51:25.000+02:00</time>
      </trkpt>
      <trkpt lat="42.61328" lon="-2.74468">
        <ele>779.6</ele>
        <time>2023-07-14T21:51:45.000+02:00</time>
      </trkpt>
      <trkpt lat="42.61289" lon="-2.74539">
        <ele>775.7</ele>
        <time>2023-07-14T21:51:55.000+02:00</time>
      </trkpt>
      <trkpt lat="42.61087" lon="-2.74681">
        <ele>763.1</ele>
        <time>2023-07-14T21:52:30.000+02:00</time>
      </trkpt>
      <trkpt lat="42.61025" lon="-2.74754">
        <ele>757.8</ele>
        <time>2023-07-14T21:52:42.000+02:00</time>
      </trkpt>
      <trkpt lat="42.61008" lon="-2.74863">
        <ele>752.4</ele>
        <time>2023-07-14T21:52:55.000+02:00</time>
      </trkpt>
      <trkpt lat="42.60945" lon="-2.75004">
        <ele>743.8</ele>
        <time>2023-07-14T21:53:14.000+02:00</time>
      </trkpt>
      <trkpt lat="42.60953" lon="-2.75125">
        <ele>741.1</ele>
        <time>2023-07-14T21:53:27.000+02:00</time>
      </trkpt>
      <trkpt lat="42.60902" lon="-2.75183">
        <ele>736.4</ele>
        <time>2023-07-14T21:53:37.000+02:00</time>
      </trkpt>
      <trkpt lat="42.60844" lon="-2.75202">
        <ele>733</ele>
        <time>2023-07-14T21:53:46.000+02:00</time>
      </trkpt>
      <trkpt lat="42.60718" lon="-2.75125">
        <ele>720.2</ele>
        <time>2023-07-14T21:54:08.000+02:00</time>
      </trkpt>
      <trkpt lat="42.60629" lon="-2.75156">
        <ele>714.3</ele>
        <time>2023-07-14T21:54:21.000+02:00</time>
      </trkpt>
      <trkpt lat="42.6057" lon="-2.75324">
        <ele>706.7</ele>
        <time>2023-07-14T21:54:43.000+02:00</time>
      </trkpt>
      <trkpt lat="42.60448" lon="-2.754">
        <ele>698.9</ele>
        <time>2023-07-14T21:55:03.000+02:00</time>
      </trkpt>
      <trkpt lat="42.6042" lon="-2.75556">
        <ele>694.8</ele>
        <time>2023-07-14T21:55:21.000+02:00</time>
      </trkpt>
      <trkpt lat="42.60398" lon="-2.75553">
        <ele>690.8</ele>
        <time>2023-07-14T21:55:24.000+02:00</time>
      </trkpt>
      <trkpt lat="42.60372" lon="-2.75616">
        <ele>696.3</ele>
        <time>2023-07-14T21:55:33.000+02:00</time>
      </trkpt>
      <trkpt lat="42.60418" lon="-2.75621">
        <ele>705.1</ele>
        <time>2023-07-14T21:55:40.000+02:00</time>
      </trkpt>
      <trkpt lat="42.60507" lon="-2.75809">
        <ele>713.9</ele>
        <time>2023-07-14T21:56:05.000+02:00</time>
      </trkpt>
      <trkpt lat="42.6062" lon="-2.75827">
        <ele>708.2</ele>
        <time>2023-07-14T21:56:22.000+02:00</time>
      </trkpt>
      <trkpt lat="42.60683" lon="-2.75902">
        <ele>704.3</ele>
        <time>2023-07-14T21:56:35.000+02:00</time>
      </trkpt>
      <trkpt lat="42.60677" lon="-2.76007">
        <ele>712.6</ele>
        <time>2023-07-14T21:56:47.000+02:00</time>
      </trkpt>
      <trkpt lat="42.60631" lon="-2.76155">
        <ele>707.9</ele>
        <time>2023-07-14T21:57:05.000+02:00</time>
      </trkpt>
      <trkpt lat="42.60657" lon="-2.7639">
        <ele>716.6</ele>
        <time>2023-07-14T21:57:31.000+02:00</time>
      </trkpt>
      <trkpt lat="42.60645" lon="-2.76476">
        <ele>717.3</ele>
        <time>2023-07-14T21:57:41.000+02:00</time>
      </trkpt>
      <trkpt lat="42.60668" lon="-2.76566">
        <ele>729</ele>
        <time>2023-07-14T21:57:52.000+02:00</time>
      </trkpt>
      <trkpt lat="42.60588" lon="-2.76683">
        <ele>738.8</ele>
        <time>2023-07-14T21:58:10.000+02:00</time>
      </trkpt>
      <trkpt lat="42.60587" lon="-2.76775">
        <ele>734.1</ele>
        <time>2023-07-14T21:58:20.000+02:00</time>
      </trkpt>
      <trkpt lat="42.60636" lon="-2.76912">
        <ele>731.3</ele>
        <time>2023-07-14T21:58:37.000+02:00</time>
      </trkpt>
      <trkpt lat="42.60723" lon="-2.76974">
        <ele>722.9</ele>
        <time>2023-07-14T21:58:52.000+02:00</time>
      </trkpt>
      <trkpt lat="42.60857" lon="-2.77307">
        <ele>699.2</ele>
        <time>2023-07-14T21:59:35.000+02:00</time>
      </trkpt>
      <trkpt lat="42.60778" lon="-2.77417">
        <ele>689.9</ele>
        <time>2023-07-14T21:59:52.000+02:00</time>
      </trkpt>
      <trkpt lat="42.60674" lon="-2.77661">
        <ele>685.2</ele>
        <time>2023-07-14T22:00:24.000+02:00</time>
      </trkpt>
      <trkpt lat="42.6068" lon="-2.77768">
        <ele>675.1</ele>
        <time>2023-07-14T22:00:36.000+02:00</time>
      </trkpt>
      <trkpt lat="42.60719" lon="-2.77854">
        <ele>664.9</ele>
        <time>2023-07-14T22:00:47.000+02:00</time>
      </trkpt>
      <trkpt lat="42.60679" lon="-2.7803">
        <ele>650.6</ele>
        <time>2023-07-14T22:01:08.000+02:00</time>
      </trkpt>
      <trkpt lat="42.60723" lon="-2.78185">
        <ele>648.8</ele>
        <time>2023-07-14T22:01:27.000+02:00</time>
      </trkpt>
      <trkpt lat="42.60649" lon="-2.78301">
        <ele>643.1</ele>
        <time>2023-07-14T22:01:44.000+02:00</time>
      </trkpt>
      <trkpt lat="42.60596" lon="-2.78326">
        <ele>638.9</ele>
        <time>2023-07-14T22:01:53.000+02:00</time>
      </trkpt>
      <trkpt lat="42.61042" lon="-2.78265">
        <ele>688.5</ele>
        <time>2023-07-14T22:03:01.000+02:00</time>
      </trkpt>
      <trkpt lat="42.61138" lon="-2.78166">
        <ele>713.8</ele>
        <time>2023-07-14T22:03:20.000+02:00</time>
      </trkpt>
      <trkpt lat="42.61174" lon="-2.78162">
        <ele>721.8</ele>
        <time>2023-07-14T22:03:25.000+02:00</time>
      </trkpt>
      <trkpt lat="42.61237" lon="-2.78286">
        <ele>736.8</ele>
        <time>2023-07-14T22:03:42.000+02:00</time>
      </trkpt>
      <trkpt lat="42.61314" lon="-2.78551">
        <ele>746.1</ele>
        <time>2023-07-14T22:04:14.000+02:00</time>
      </trkpt>
      <trkpt lat="42.61488" lon="-2.78732">
        <ele>745.4</ele>
        <time>2023-07-14T22:04:48.000+02:00</time>
      </trkpt>
      <trkpt lat="42.61477" lon="-2.78878">
        <ele>743.8</ele>
        <time>2023-07-14T22:05:04.000+02:00</time>
      </trkpt>
      <trkpt lat="42.61623" lon="-2.79079">
        <ele>744.5</ele>
        <time>2023-07-14T22:05:36.000+02:00</time>
      </trkpt>
      <trkpt lat="42.61562" lon="-2.79265">
        <ele>722.8</ele>
        <time>2023-07-14T22:05:59.000+02:00</time>
      </trkpt>
      <trkpt lat="42.61589" lon="-2.79335">
        <ele>712.7</ele>
        <time>2023-07-14T22:06:08.000+02:00</time>
      </trkpt>
      <trkpt lat="42.61458" lon="-2.79403">
        <ele>690.1</ele>
        <time>2023-07-14T22:06:29.000+02:00</time>
      </trkpt>
      <trkpt lat="42.61333" lon="-2.79383">
        <ele>678.7</ele>
        <time>2023-07-14T22:06:48.000+02:00</time>
      </trkpt>
      <trkpt lat="42.61251" lon="-2.79318">
        <ele>663.3</ele>
        <time>2023-07-14T22:07:03.000+02:00</time>
      </trkpt>
      <trkpt lat="42.61258" lon="-2.79272">
        <ele>659.8</ele>
        <time>2023-07-14T22:07:08.000+02:00</time>
      </trkpt>
      <trkpt lat="42.61241" lon="-2.79338">
        <ele>658.7</ele>
        <time>2023-07-14T22:07:16.000+02:00</time>
      </trkpt>
      <trkpt lat="42.61338" lon="-2.7947">
        <ele>658</ele>
        <time>2023-07-14T22:07:37.000+02:00</time>
      </trkpt>
      <trkpt lat="42.616" lon="-2.79555">
        <ele>654.6</ele>
        <time>2023-07-14T22:08:18.000+02:00</time>
      </trkpt>
      <trkpt lat="42.61329" lon="-2.79545">
        <ele>639.2</ele>
        <time>2023-07-14T22:09:00.000+02:00</time>
      </trkpt>
      <trkpt lat="42.61201" lon="-2.7944">
        <ele>631.9</ele>
        <time>2023-07-14T22:09:22.000+02:00</time>
      </trkpt>
      <trkpt lat="42.61167" lon="-2.79442">
        <ele>629.4</ele>
        <time>2023-07-14T22:09:28.000+02:00</time>
      </trkpt>
      <trkpt lat="42.61116" lon="-2.79604">
        <ele>618.6</ele>
        <time>2023-07-14T22:09:47.000+02:00</time>
      </trkpt>
      <trkpt lat="42.60963" lon="-2.79782">
        <ele>607.3</ele>
        <time>2023-07-14T22:10:18.000+02:00</time>
      </trkpt>
      <trkpt lat="42.60857" lon="-2.79751">
        <ele>598.9</ele>
        <time>2023-07-14T22:10:35.000+02:00</time>
      </trkpt>
      <trkpt lat="42.60779" lon="-2.79802">
        <ele>593.2</ele>
        <time>2023-07-14T22:10:48.000+02:00</time>
      </trkpt>
      <trkpt lat="42.60608" lon="-2.79815">
        <ele>584</ele>
        <time>2023-07-14T22:11:14.000+02:00</time>
      </trkpt>
      <trkpt lat="42.6053" lon="-2.79863">
        <ele>583.8</ele>
        <time>2023-07-14T22:11:27.000+02:00</time>
      </trkpt>
      <trkpt lat="42.6014" lon="-2.79848">
        <ele>570.1</ele>
        <time>2023-07-14T22:12:27.000+02:00</time>
      </trkpt>
      <trkpt lat="42.59972" lon="-2.79893">
        <ele>553</ele>
        <time>2023-07-14T22:12:53.000+02:00</time>
      </trkpt>
      <trkpt lat="42.59881" lon="-2.79861">
        <ele>550.5</ele>
        <time>2023-07-14T22:13:07.000+02:00</time>
      </trkpt>
      <trkpt lat="42.59715" lon="-2.79738">
        <ele>545.5</ele>
        <time>2023-07-14T22:13:36.000+02:00</time>
      </trkpt>
      <trkpt lat="42.59622" lon="-2.79739">
        <ele>548.8</ele>
        <time>2023-07-14T22:13:51.000+02:00</time>
      </trkpt>
      <trkpt lat="42.5955" lon="-2.79797">
        <ele>549.6</ele>
        <time>2023-07-14T22:14:03.000+02:00</time>
      </trkpt>
      <trkpt lat="42.59355" lon="-2.79798">
        <ele>551.5</ele>
        <time>2023-07-14T22:14:33.000+02:00</time>
      </trkpt>
      <trkpt lat="42.59142" lon="-2.79661">
        <ele>536.3</ele>
        <time>2023-07-14T22:15:09.000+02:00</time>
      </trkpt>
      <trkpt lat="42.59035" lon="-2.79665">
        <ele>532.5</ele>
        <time>2023-07-14T22:15:25.000+02:00</time>
      </trkpt>
      <trkpt lat="42.58992" lon="-2.79558">
        <ele>528.7</ele>
        <time>2023-07-14T22:15:39.000+02:00</time>
      </trkpt>
      <trkpt lat="42.58912" lon="-2.79593">
        <ele>527.8</ele>
        <time>2023-07-14T22:15:52.000+02:00</time>
      </trkpt>
      <trkpt lat="42.5865" lon="-2.79605">
        <ele>514.6</ele>
        <time>2023-07-14T22:16:32.000+02:00</time>
      </trkpt>
      <trkpt lat="42.58661" lon="-2.79453">
        <ele>517.9</ele>
        <time>2023-07-14T22:16:49.000+02:00</time>
      </trkpt>
      <trkpt lat="42.58559" lon="-2.7937">
        <ele>529.1</ele>
        <time>2023-07-14T22:17:07.000+02:00</time>
      </trkpt>
      <trkpt lat="42.58409" lon="-2.79584">
        <ele>518.8</ele>
        <time>2023-07-14T22:17:41.000+02:00</time>
      </trkpt>
      <trkpt lat="42.58211" lon="-2.79719">
        <ele>511.6</ele>
        <time>2023-07-14T22:18:14.000+02:00</time>
      </trkpt>
      <trkpt lat="42.58193" lon="-2.79916">
        <ele>516</ele>
        <time>2023-07-14T22:18:37.000+02:00</time>
      </trkpt>
      <trkpt lat="42.57985" lon="-2.7993">
        <ele>512.4</ele>
        <time>2023-07-14T22:19:09.000+02:00</time>
      </trkpt>
      <trkpt lat="42.57936" lon="-2.80489">
        <ele>507.6</ele>
        <time>2023-07-14T22:20:12.000+02:00</time>
      </trkpt>
      <trkpt lat="42.57875" lon="-2.80656">
        <ele>496.2</ele>
        <time>2023-07-14T22:20:33.000+02:00</time>
      </trkpt>
      <trkpt lat="42.57725" lon="-2.80763">
        <ele>485.6</ele>
        <time>2023-07-14T22:20:59.000+02:00</time>
      </trkpt>
      <trkpt lat="42.57569" lon="-2.80759">
        <ele>476.8</ele>
        <time>2023-07-14T22:21:23.000+02:00</time>
      </trkpt>
      <trkpt lat="42.5747" lon="-2.80723">
        <ele>470.6</ele>
        <time>2023-07-14T22:21:38.000+02:00</time>
      </trkpt>
      <trkpt lat="42.57368" lon="-2.80815">
        <ele>459.3</ele>
        <time>2023-07-14T22:21:57.000+02:00</time>
      </trkpt>
      <trkpt lat="42.5734" lon="-2.809">
        <ele>450.4</ele>
        <time>2023-07-14T22:22:08.000+02:00</time>
      </trkpt>
      <trkpt lat="42.57241" lon="-2.8102">
        <ele>443.6</ele>
        <time>2023-07-14T22:22:28.000+02:00</time>
      </trkpt>
      <trkpt lat="42.57214" lon="-2.81123">
        <ele>456.1</ele>
        <time>2023-07-14T22:22:40.000+02:00</time>
      </trkpt>
      <trkpt lat="42.57213" lon="-2.81247">
        <ele>460.9</ele>
        <time>2023-07-14T22:22:54.000+02:00</time>
      </trkpt>
      <trkpt lat="42.5724" lon="-2.81307">
        <ele>461.4</ele>
        <time>2023-07-14T22:23:02.000+02:00</time>
      </trkpt>
      <trkpt lat="42.57257" lon="-2.81488">
        <ele>464.9</ele>
        <time>2023-07-14T22:23:22.000+02:00</time>
      </trkpt>
      <trkpt lat="42.57224" lon="-2.81594">
        <ele>466.1</ele>
        <time>2023-07-14T22:23:35.000+02:00</time>
      </trkpt>
      <trkpt lat="42.57362" lon="-2.81749">
        <ele>466.3</ele>
        <time>2023-07-14T22:24:03.000+02:00</time>
      </trkpt>
      <trkpt lat="42.57354" lon="-2.8178">
        <ele>466</ele>
        <time>2023-07-14T22:24:07.000+02:00</time>
      </trkpt>
      <trkpt lat="42.5734" lon="-2.81831">
        <ele>464.5</ele>
        <time>2023-07-14T22:24:13.000+02:00</time>
      </trkpt>
      <trkpt lat="42.57315" lon="-2.81902">
        <ele>464</ele>
        <time>2023-07-14T22:24:21.000+02:00</time>
      </trkpt>
      <trkpt lat="42.57294" lon="-2.81942">
        <ele>465.3</ele>
        <time>2023-07-14T22:24:27.000+02:00</time>
      </trkpt>
      <trkpt lat="42.57259" lon="-2.8201">
        <ele>466.8</ele>
        <time>2023-07-14T22:24:36.000+02:00</time>
      </trkpt>
      <trkpt lat="42.57249" lon="-2.82026">
        <ele>466.8</ele>
        <time>2023-07-14T22:24:39.000+02:00</time>
      </trkpt>
      <trkpt lat="42.57213" lon="-2.82048">
        <ele>465.8</ele>
        <time>2023-07-14T22:24:45.000+02:00</time>
      </trkpt>
      <trkpt lat="42.57188" lon="-2.8208">
        <ele>466.5</ele>
        <time>2023-07-14T22:24:50.000+02:00</time>
      </trkpt>
      <trkpt lat="42.57148" lon="-2.82168">
        <ele>470.8</ele>
        <time>2023-07-14T22:25:02.000+02:00</time>
      </trkpt>
      <trkpt lat="42.57108" lon="-2.82242">
        <ele>471.5</ele>
        <time>2023-07-14T22:25:12.000+02:00</time>
      </trkpt>
      <trkpt lat="42.57089" lon="-2.82316">
        <ele>471</ele>
        <time>2023-07-14T22:25:21.000+02:00</time>
      </trkpt>
      <trkpt lat="42.5708" lon="-2.82378">
        <ele>470.3</ele>
        <time>2023-07-14T22:25:28.000+02:00</time>
      </trkpt>
      <trkpt lat="42.57064" lon="-2.82451">
        <ele>470.3</ele>
        <time>2023-07-14T22:25:36.000+02:00</time>
      </trkpt>
      <trkpt lat="42.57012" lon="-2.82608">
        <ele>467.3</ele>
        <time>2023-07-14T22:25:56.000+02:00</time>
      </trkpt>
      <trkpt lat="42.57005" lon="-2.82629">
        <ele>467</ele>
        <time>2023-07-14T22:25:58.000+02:00</time>
      </trkpt>
      <trkpt lat="42.57059" lon="-2.82684">
        <ele>462</ele>
        <time>2023-07-14T22:26:09.000+02:00</time>
      </trkpt>
      <trkpt lat="42.57094" lon="-2.82726">
        <ele>459</ele>
        <time>2023-07-14T22:26:16.000+02:00</time>
      </trkpt>
      <trkpt lat="42.57095" lon="-2.82728">
        <ele>458.8</ele>
        <time>2023-07-14T22:26:16.000+02:00</time>
      </trkpt>
      <trkpt lat="42.571" lon="-2.82747">
        <ele>458.3</ele>
        <time>2023-07-14T22:26:18.000+02:00</time>
      </trkpt>
      <trkpt lat="42.57112" lon="-2.82739">
        <ele>457.8</ele>
        <time>2023-07-14T22:26:20.000+02:00</time>
      </trkpt>
      <trkpt lat="42.57124" lon="-2.82718">
        <ele>457.8</ele>
        <time>2023-07-14T22:26:23.000+02:00</time>
      </trkpt>
      <trkpt lat="42.57163" lon="-2.82671">
        <ele>457</ele>
        <time>2023-07-14T22:26:31.000+02:00</time>
      </trkpt>
      <trkpt lat="42.57196" lon="-2.82641">
        <ele>458.8</ele>
        <time>2023-07-14T22:26:37.000+02:00</time>
      </trkpt>
      <trkpt lat="42.57213" lon="-2.82614">
        <ele>460.3</ele>
        <time>2023-07-14T22:26:41.000+02:00</time>
      </trkpt>
      <trkpt lat="42.57231" lon="-2.82594">
        <ele>461.5</ele>
        <time>2023-07-14T22:26:45.000+02:00</time>
      </trkpt>
      <trkpt lat="42.57255" lon="-2.8255">
        <ele>464.5</ele>
        <time>2023-07-14T22:26:51.000+02:00</time>
      </trkpt>
      <trkpt lat="42.5727" lon="-2.82507">
        <ele>467</ele>
        <time>2023-07-14T22:26:56.000+02:00</time>
      </trkpt>
      <trkpt lat="42.5728" lon="-2.82465">
        <ele>469.3</ele>
        <time>2023-07-14T22:27:01.000+02:00</time>
      </trkpt>
      <trkpt lat="42.57287" lon="-2.82453">
        <ele>470</ele>
        <time>2023-07-14T22:27:03.000+02:00</time>
      </trkpt>
      <trkpt lat="42.57296" lon="-2.8245">
        <ele>470.3</ele>
        <time>2023-07-14T22:27:04.000+02:00</time>
      </trkpt>
      <trkpt lat="42.57352" lon="-2.82449">
        <ele>472.5</ele>
        <time>2023-07-14T22:27:13.000+02:00</time>
      </trkpt>
      <trkpt lat="42.57406" lon="-2.82447">
        <ele>477</ele>
        <time>2023-07-14T22:27:21.000+02:00</time>
      </trkpt>
      <trkpt lat="42.57421" lon="-2.82436">
        <ele>477.8</ele>
        <time>2023-07-14T22:27:24.000+02:00</time>
      </trkpt>
      <trkpt lat="42.57435" lon="-2.82422">
        <ele>478</ele>
        <time>2023-07-14T22:27:27.000+02:00</time>
      </trkpt>
      <trkpt lat="42.57455" lon="-2.82409">
        <ele>479.3</ele>
        <time>2023-07-14T22:27:30.000+02:00</time>
      </trkpt>
      <trkpt lat="42.57486" lon="-2.82404">
        <ele>481</ele>
        <time>2023-07-14T22:27:35.000+02:00</time>
      </trkpt>
      <trkpt lat="42.57534" lon="-2.82352">
        <ele>479.8</ele>
        <time>2023-07-14T22:27:44.000+02:00</time>
      </trkpt>
      <trkpt lat="42.57555" lon="-2.82323">
        <ele>478</ele>
        <time>2023-07-14T22:27:49.000+02:00</time>
      </trkpt>
      <trkpt lat="42.57564" lon="-2.82321">
        <ele>477.5</ele>
        <time>2023-07-14T22:27:50.000+02:00</time>
      </trkpt>
      <trkpt lat="42.57579" lon="-2.82322">
        <ele>477</ele>
        <time>2023-07-14T22:27:52.000+02:00</time>
      </trkpt>
      <trkpt lat="42.57608" lon="-2.82332">
        <ele>475.8</ele>
        <time>2023-07-14T22:27:57.000+02:00</time>
      </trkpt>
      <trkpt lat="42.57632" lon="-2.82336">
        <ele>474.8</ele>
        <time>2023-07-14T22:28:01.000+02:00</time>
      </trkpt>
      <trkpt lat="42.57653" lon="-2.82331">
        <ele>473.5</ele>
        <time>2023-07-14T22:28:04.000+02:00</time>
      </trkpt>
      <trkpt lat="42.57671" lon="-2.82325">
        <ele>473</ele>
        <time>2023-07-14T22:28:07.000+02:00</time>
      </trkpt>
      <trkpt lat="42.57687" lon="-2.82321">
        <ele>472.5</ele>
        <time>2023-07-14T22:28:09.000+02:00</time>
      </trkpt>
      <trkpt lat="42.57727" lon="-2.82287">
        <ele>472.5</ele>
        <time>2023-07-14T22:28:16.000+02:00</time>
      </trkpt>
      <trkpt lat="42.57747" lon="-2.8227">
        <ele>473</ele>
        <time>2023-07-14T22:28:20.000+02:00</time>
      </trkpt>
      <trkpt lat="42.57766" lon="-2.82256">
        <ele>473.5</ele>
        <time>2023-07-14T22:28:23.000+02:00</time>
      </trkpt>
      <trkpt lat="42.5782" lon="-2.82224">
        <ele>474.3</ele>
        <time>2023-07-14T22:28:32.000+02:00</time>
      </trkpt>
      <trkpt lat="42.57846" lon="-2.82213">
        <ele>474.8</ele>
        <time>2023-07-14T22:28:37.000+02:00</time>
      </trkpt>
      <trkpt lat="42.5787" lon="-2.82209">
        <ele>475</ele>
        <time>2023-07-14T22:28:40.000+02:00</time>
      </trkpt>
      <trkpt lat="42.579" lon="-2.82208">
        <ele>475.3</ele>
        <time>2023-07-14T22:28:45.000+02:00</time>
      </trkpt>
      <trkpt lat="42.57915" lon="-2.82205">
        <ele>475.5</ele>
        <time>2023-07-14T22:28:47.000+02:00</time>
      </trkpt>
      <trkpt lat="42.57927" lon="-2.82197">
        <ele>475.5</ele>
        <time>2023-07-14T22:28:49.000+02:00</time>
      </trkpt>
      <trkpt lat="42.57948" lon="-2.82172">
        <ele>475.5</ele>
        <time>2023-07-14T22:28:53.000+02:00</time>
      </trkpt>
      <trkpt lat="42.57981" lon="-2.82141">
        <ele>476.3</ele>
        <time>2023-07-14T22:29:00.000+02:00</time>
      </trkpt>
      <trkpt lat="42.57999" lon="-2.82128">
        <ele>476.3</ele>
        <time>2023-07-14T22:29:03.000+02:00</time>
      </trkpt>
      <trkpt lat="42.58011" lon="-2.82137">
        <ele>476</ele>
        <time>2023-07-14T22:29:05.000+02:00</time>
      </trkpt>
      <trkpt lat="42.58031" lon="-2.82166">
        <ele>475</ele>
        <time>2023-07-14T22:29:09.000+02:00</time>
      </trkpt>
      <trkpt lat="42.58033" lon="-2.82179">
        <ele>474.8</ele>
        <time>2023-07-14T22:29:11.000+02:00</time>
      </trkpt>
      <trkpt lat="42.5802" lon="-2.82252">
        <ele>471.8</ele>
        <time>2023-07-14T22:29:19.000+02:00</time>
      </trkpt>
      <trkpt lat="42.58035" lon="-2.8226">
        <ele>472.3</ele>
        <time>2023-07-14T22:29:22.000+02:00</time>
      </trkpt>
      <trkpt lat="42.58032" lon="-2.8229">
        <ele>471.5</ele>
        <time>2023-07-14T22:29:25.000+02:00</time>
      </trkpt>
      <trkpt lat="42.5803" lon="-2.82325">
        <ele>470.8</ele>
        <time>2023-07-14T22:29:29.000+02:00</time>
      </trkpt>
      <trkpt lat="42.5803" lon="-2.82391">
        <ele>469</ele>
        <time>2023-07-14T22:29:36.000+02:00</time>
      </trkpt>
      <trkpt lat="42.58036" lon="-2.82766">
        <ele>471.5</ele>
        <time>2023-07-14T22:30:19.000+02:00</time>
      </trkpt>
      <trkpt lat="42.58042" lon="-2.82833">
        <ele>470</ele>
        <time>2023-07-14T22:30:26.000+02:00</time>
      </trkpt>
      <trkpt lat="42.5805" lon="-2.82872">
        <ele>468</ele>
        <time>2023-07-14T22:30:31.000+02:00</time>
      </trkpt>
      <trkpt lat="42.58059" lon="-2.82899">
        <ele>466.5</ele>
        <time>2023-07-14T22:30:34.000+02:00</time>
      </trkpt>
      <trkpt lat="42.5807" lon="-2.82928">
        <ele>464.3</ele>
        <time>2023-07-14T22:30:38.000+02:00</time>
      </trkpt>
      <trkpt lat="42.5807" lon="-2.82928">
        <ele>464.3</ele>
        <time>2023-07-14T22:30:38.000+02:00</time>
      </trkpt>
      <trkpt lat="42.58119" lon="-2.83007">
        <ele>456.6</ele>
        <time>2023-07-14T22:30:49.000+02:00</time>
      </trkpt>
      <trkpt lat="42.58253" lon="-2.83132">
        <ele>450.3</ele>
        <time>2023-07-14T22:31:14.000+02:00</time>
      </trkpt>
      <trkpt lat="42.58521" lon="-2.83313">
        <ele>445.5</ele>
        <time>2023-07-14T22:32:00.000+02:00</time>
      </trkpt>
      <trkpt lat="42.58542" lon="-2.83384">
        <ele>443.6</ele>
        <time>2023-07-14T22:32:09.000+02:00</time>
      </trkpt>
      <trkpt lat="42.58247" lon="-2.84593">
        <ele>443</ele>
        <time>2023-07-14T22:34:32.000+02:00</time>
      </trkpt>
      <trkpt lat="42.58223" lon="-2.84652">
        <ele>443</ele>
        <time>2023-07-14T22:34:39.000+02:00</time>
      </trkpt>
      <trkpt lat="42.58171" lon="-2.8468">
        <ele>442.2</ele>
        <time>2023-07-14T22:34:48.000+02:00</time>
      </trkpt>
      <trkpt lat="42.5808" lon="-2.84826">
        <ele>441.6</ele>
        <time>2023-07-14T22:35:10.000+02:00</time>
      </trkpt>
      <trkpt lat="42.58015" lon="-2.84985">
        <ele>443.2</ele>
        <time>2023-07-14T22:35:30.000+02:00</time>
      </trkpt>
      <trkpt lat="42.57902" lon="-2.85066">
        <ele>444.2</ele>
        <time>2023-07-14T22:35:50.000+02:00</time>
      </trkpt>
      <trkpt lat="42.57892" lon="-2.85237">
        <ele>445.1</ele>
        <time>2023-07-14T22:36:09.000+02:00</time>
      </trkpt>
      <trkpt lat="42.58093" lon="-2.85625">
        <ele>447.7</ele>
        <time>2023-07-14T22:37:02.000+02:00</time>
      </trkpt>
      <trkpt lat="42.58103" lon="-2.85766">
        <ele>452.2</ele>
        <time>2023-07-14T22:37:18.000+02:00</time>
      </trkpt>
      <trkpt lat="42.58134" lon="-2.85838">
        <ele>454.3</ele>
        <time>2023-07-14T22:37:28.000+02:00</time>
      </trkpt>
      <trkpt lat="42.58225" lon="-2.85856">
        <ele>460.8</ele>
        <time>2023-07-14T22:37:42.000+02:00</time>
      </trkpt>
      <trkpt lat="42.5853" lon="-2.86049">
        <ele>470.6</ele>
        <time>2023-07-14T22:38:33.000+02:00</time>
      </trkpt>
      <trkpt lat="42.58598" lon="-2.86049">
        <ele>474</ele>
        <time>2023-07-14T22:38:43.000+02:00</time>
      </trkpt>
      <trkpt lat="42.58852" lon="-2.85938">
        <ele>475.3</ele>
        <time>2023-07-14T22:39:24.000+02:00</time>
      </trkpt>
      <trkpt lat="42.58913" lon="-2.85989">
        <ele>472.8</ele>
        <time>2023-07-14T22:39:35.000+02:00</time>
      </trkpt>
      <trkpt lat="42.5894" lon="-2.86144">
        <ele>468.1</ele>
        <time>2023-07-14T22:39:53.000+02:00</time>
      </trkpt>
      <trkpt lat="42.59071" lon="-2.86174">
        <ele>458.7</ele>
        <time>2023-07-14T22:40:13.000+02:00</time>
      </trkpt>
      <trkpt lat="42.59168" lon="-2.86256">
        <ele>453.9</ele>
        <time>2023-07-14T22:40:31.000+02:00</time>
      </trkpt>
      <trkpt lat="42.59195" lon="-2.86222">
        <ele>454.2</ele>
        <time>2023-07-14T22:40:37.000+02:00</time>
      </trkpt>
      <trkpt lat="42.59187" lon="-2.86106">
        <ele>453.7</ele>
        <time>2023-07-14T22:40:50.000+02:00</time>
      </trkpt>
      <trkpt lat="42.59217" lon="-2.86031">
        <ele>453.4</ele>
        <time>2023-07-14T22:40:59.000+02:00</time>
      </trkpt>
      <trkpt lat="42.59416" lon="-2.85937">
        <ele>455.9</ele>
        <time>2023-07-14T22:41:31.000+02:00</time>
      </trkpt>
      <trkpt lat="42.59668" lon="-2.85586">
        <ele>454.9</ele>
        <time>2023-07-14T22:42:27.000+02:00</time>
      </trkpt>
      <trkpt lat="42.59762" lon="-2.85517">
        <ele>461.1</ele>
        <time>2023-07-14T22:42:43.000+02:00</time>
      </trkpt>
      <trkpt lat="42.60242" lon="-2.85443">
        <ele>465.7</ele>
        <time>2023-07-14T22:43:57.000+02:00</time>
      </trkpt>
      <trkpt lat="42.60623" lon="-2.85449">
        <ele>477.6</ele>
        <time>2023-07-14T22:44:55.000+02:00</time>
      </trkpt>
      <trkpt lat="42.60868" lon="-2.85349">
        <ele>482.8</ele>
        <time>2023-07-14T22:45:34.000+02:00</time>
      </trkpt>
      <trkpt lat="42.60923" lon="-2.85373">
        <ele>483.4</ele>
        <time>2023-07-14T22:45:43.000+02:00</time>
      </trkpt>
      <trkpt lat="42.61015" lon="-2.8547">
        <ele>485.1</ele>
        <time>2023-07-14T22:46:01.000+02:00</time>
      </trkpt>
      <trkpt lat="42.61295" lon="-2.8552">
        <ele>518.3</ele>
        <time>2023-07-14T22:46:44.000+02:00</time>
      </trkpt>
      <trkpt lat="42.61405" lon="-2.85582">
        <ele>536.1</ele>
        <time>2023-07-14T22:47:02.000+02:00</time>
      </trkpt>
      <trkpt lat="42.61517" lon="-2.8555">
        <ele>553</ele>
        <time>2023-07-14T22:47:19.000+02:00</time>
      </trkpt>
      <trkpt lat="42.61528" lon="-2.85582">
        <ele>553.3</ele>
        <time>2023-07-14T22:47:24.000+02:00</time>
      </trkpt>
      <trkpt lat="42.6153" lon="-2.85599">
        <ele>554.3</ele>
        <time>2023-07-14T22:47:25.000+02:00</time>
      </trkpt>
      <trkpt lat="42.61534" lon="-2.85666">
        <ele>557</ele>
        <time>2023-07-14T22:47:33.000+02:00</time>
      </trkpt>
      <trkpt lat="42.61535" lon="-2.85673">
        <ele>559.5</ele>
        <time>2023-07-14T22:47:34.000+02:00</time>
      </trkpt>
      <trkpt lat="42.61537" lon="-2.85673">
        <ele>559.3</ele>
        <time>2023-07-14T22:47:35.000+02:00</time>
      </trkpt>
      <trkpt lat="42.6155" lon="-2.8567">
        <ele>559</ele>
        <time>2023-07-14T22:47:37.000+02:00</time>
      </trkpt>
      <trkpt lat="42.61599" lon="-2.85654">
        <ele>558.5</ele>
        <time>2023-07-14T22:47:45.000+02:00</time>
      </trkpt>
      <trkpt lat="42.61637" lon="-2.85648">
        <ele>557.3</ele>
        <time>2023-07-14T22:47:51.000+02:00</time>
      </trkpt>
      <trkpt lat="42.6167" lon="-2.85655">
        <ele>557.3</ele>
        <time>2023-07-14T22:47:56.000+02:00</time>
      </trkpt>
      <trkpt lat="42.6169" lon="-2.85656">
        <ele>559</ele>
        <time>2023-07-14T22:47:59.000+02:00</time>
      </trkpt>
      <trkpt lat="42.61716" lon="-2.85647">
        <ele>560</ele>
        <time>2023-07-14T22:48:03.000+02:00</time>
      </trkpt>
      <trkpt lat="42.61738" lon="-2.85638">
        <ele>561</ele>
        <time>2023-07-14T22:48:07.000+02:00</time>
      </trkpt>
      <trkpt lat="42.6178" lon="-2.85646">
        <ele>569.3</ele>
        <time>2023-07-14T22:48:13.000+02:00</time>
      </trkpt>
      <trkpt lat="42.61828" lon="-2.85596">
        <ele>571</ele>
        <time>2023-07-14T22:48:22.000+02:00</time>
      </trkpt>
      <trkpt lat="42.61861" lon="-2.85531">
        <ele>569</ele>
        <time>2023-07-14T22:48:31.000+02:00</time>
      </trkpt>
      <trkpt lat="42.61863" lon="-2.8553">
        <ele>569.3</ele>
        <time>2023-07-14T22:48:31.000+02:00</time>
      </trkpt>
      <trkpt lat="42.61925" lon="-2.85499">
        <ele>574.5</ele>
        <time>2023-07-14T22:48:42.000+02:00</time>
      </trkpt>
      <trkpt lat="42.61956" lon="-2.8549">
        <ele>575.5</ele>
        <time>2023-07-14T22:48:46.000+02:00</time>
      </trkpt>
      <trkpt lat="42.61992" lon="-2.85481">
        <ele>577.5</ele>
        <time>2023-07-14T22:48:52.000+02:00</time>
      </trkpt>
      <trkpt lat="42.62043" lon="-2.85478">
        <ele>574</ele>
        <time>2023-07-14T22:49:00.000+02:00</time>
      </trkpt>
      <trkpt lat="42.62098" lon="-2.8548">
        <ele>569</ele>
        <time>2023-07-14T22:49:08.000+02:00</time>
      </trkpt>
      <trkpt lat="42.62109" lon="-2.85484">
        <ele>567.5</ele>
        <time>2023-07-14T22:49:10.000+02:00</time>
      </trkpt>
      <trkpt lat="42.62155" lon="-2.85498">
        <ele>561.8</ele>
        <time>2023-07-14T22:49:17.000+02:00</time>
      </trkpt>
      <trkpt lat="42.62213" lon="-2.85527">
        <ele>562.8</ele>
        <time>2023-07-14T22:49:27.000+02:00</time>
      </trkpt>
      <trkpt lat="42.6226" lon="-2.85557">
        <ele>564</ele>
        <time>2023-07-14T22:49:34.000+02:00</time>
      </trkpt>
      <trkpt lat="42.62294" lon="-2.85589">
        <ele>563.3</ele>
        <time>2023-07-14T22:49:41.000+02:00</time>
      </trkpt>
      <trkpt lat="42.62317" lon="-2.85616">
        <ele>562</ele>
        <time>2023-07-14T22:49:45.000+02:00</time>
      </trkpt>
      <trkpt lat="42.62337" lon="-2.85632">
        <ele>560.5</ele>
        <time>2023-07-14T22:49:49.000+02:00</time>
      </trkpt>
      <trkpt lat="42.62341" lon="-2.85646">
        <ele>560.5</ele>
        <time>2023-07-14T22:49:51.000+02:00</time>
      </trkpt>
      <trkpt lat="42.62349" lon="-2.85708">
        <ele>558.8</ele>
        <time>2023-07-14T22:49:58.000+02:00</time>
      </trkpt>
      <trkpt lat="42.62357" lon="-2.8572">
        <ele>557.5</ele>
        <time>2023-07-14T22:50:00.000+02:00</time>
      </trkpt>
      <trkpt lat="42.62404" lon="-2.85753">
        <ele>551.5</ele>
        <time>2023-07-14T22:50:08.000+02:00</time>
      </trkpt>
      <trkpt lat="42.62411" lon="-2.85758">
        <ele>551.3</ele>
        <time>2023-07-14T22:50:09.000+02:00</time>
      </trkpt>
      <trkpt lat="42.62428" lon="-2.85764">
        <ele>550</ele>
        <time>2023-07-14T22:50:12.000+02:00</time>
      </trkpt>
      <trkpt lat="42.62488" lon="-2.85776">
        <ele>545.5</ele>
        <time>2023-07-14T22:50:21.000+02:00</time>
      </trkpt>
      <trkpt lat="42.62521" lon="-2.85783">
        <ele>544.8</ele>
        <time>2023-07-14T22:50:26.000+02:00</time>
      </trkpt>
      <trkpt lat="42.62532" lon="-2.85781">
        <ele>544</ele>
        <time>2023-07-14T22:50:28.000+02:00</time>
      </trkpt>
      <trkpt lat="42.62543" lon="-2.8578">
        <ele>543.8</ele>
        <time>2023-07-14T22:50:29.000+02:00</time>
      </trkpt>
      <trkpt lat="42.62613" lon="-2.85759">
        <ele>540.5</ele>
        <time>2023-07-14T22:50:40.000+02:00</time>
      </trkpt>
      <trkpt lat="42.62721" lon="-2.85733">
        <ele>535</ele>
        <time>2023-07-14T22:50:57.000+02:00</time>
      </trkpt>
      <trkpt lat="42.62763" lon="-2.85725">
        <ele>532</ele>
        <time>2023-07-14T22:51:03.000+02:00</time>
      </trkpt>
      <trkpt lat="42.62781" lon="-2.85725">
        <ele>531.3</ele>
        <time>2023-07-14T22:51:06.000+02:00</time>
      </trkpt>
      <trkpt lat="42.62827" lon="-2.85739">
        <ele>530.3</ele>
        <time>2023-07-14T22:51:14.000+02:00</time>
      </trkpt>
      <trkpt lat="42.62893" lon="-2.85764">
        <ele>525.8</ele>
        <time>2023-07-14T22:51:24.000+02:00</time>
      </trkpt>
      <trkpt lat="42.62995" lon="-2.85805">
        <ele>517.5</ele>
        <time>2023-07-14T22:51:40.000+02:00</time>
      </trkpt>
      <trkpt lat="42.63027" lon="-2.85813">
        <ele>514.3</ele>
        <time>2023-07-14T22:51:45.000+02:00</time>
      </trkpt>
      <trkpt lat="42.63044" lon="-2.8581">
        <ele>512.3</ele>
        <time>2023-07-14T22:51:48.000+02:00</time>
      </trkpt>
      <trkpt lat="42.63053" lon="-2.858">
        <ele>511</ele>
        <time>2023-07-14T22:51:50.000+02:00</time>
      </trkpt>
      <trkpt lat="42.63058" lon="-2.85801">
        <ele>510.3</ele>
        <time>2023-07-14T22:51:51.000+02:00</time>
      </trkpt>
      <trkpt lat="42.63053" lon="-2.858">
        <ele>511</ele>
        <time>2023-07-14T22:51:52.000+02:00</time>
      </trkpt>
      <trkpt lat="42.63058" lon="-2.85771">
        <ele>509.3</ele>
        <time>2023-07-14T22:51:56.000+02:00</time>
      </trkpt>
      <trkpt lat="42.63064" lon="-2.85696">
        <ele>509.8</ele>
        <time>2023-07-14T22:52:04.000+02:00</time>
      </trkpt>
      <trkpt lat="42.63071" lon="-2.85608">
        <ele>511.3</ele>
        <time>2023-07-14T22:52:14.000+02:00</time>
      </trkpt>
      <trkpt lat="42.63079" lon="-2.85584">
        <ele>511.3</ele>
        <time>2023-07-14T22:52:17.000+02:00</time>
      </trkpt>
      <trkpt lat="42.63094" lon="-2.85565">
        <ele>509.8</ele>
        <time>2023-07-14T22:52:20.000+02:00</time>
      </trkpt>
      <trkpt lat="42.63113" lon="-2.85554">
        <ele>507.8</ele>
        <time>2023-07-14T22:52:23.000+02:00</time>
      </trkpt>
      <trkpt lat="42.6313" lon="-2.85557">
        <ele>506</ele>
        <time>2023-07-14T22:52:26.000+02:00</time>
      </trkpt>
      <trkpt lat="42.63155" lon="-2.85578">
        <ele>503.3</ele>
        <time>2023-07-14T22:52:30.000+02:00</time>
      </trkpt>
      <trkpt lat="42.63187" lon="-2.85617">
        <ele>499.5</ele>
        <time>2023-07-14T22:52:37.000+02:00</time>
      </trkpt>
      <trkpt lat="42.63203" lon="-2.85631">
        <ele>497.8</ele>
        <time>2023-07-14T22:52:40.000+02:00</time>
      </trkpt>
      <trkpt lat="42.63221" lon="-2.85636">
        <ele>495.8</ele>
        <time>2023-07-14T22:52:43.000+02:00</time>
      </trkpt>
      <trkpt lat="42.63242" lon="-2.85627">
        <ele>493.3</ele>
        <time>2023-07-14T22:52:46.000+02:00</time>
      </trkpt>
      <trkpt lat="42.63257" lon="-2.85633">
        <ele>491.3</ele>
        <time>2023-07-14T22:52:48.000+02:00</time>
      </trkpt>
      <trkpt lat="42.6327" lon="-2.85649">
        <ele>489.8</ele>
        <time>2023-07-14T22:52:51.000+02:00</time>
      </trkpt>
      <trkpt lat="42.63367" lon="-2.85703">
        <ele>487.3</ele>
        <time>2023-07-14T22:53:07.000+02:00</time>
      </trkpt>
      <trkpt lat="42.63436" lon="-2.85733">
        <ele>485.5</ele>
        <time>2023-07-14T22:53:18.000+02:00</time>
      </trkpt>
      <trkpt lat="42.63488" lon="-2.8576">
        <ele>484</ele>
        <time>2023-07-14T22:53:27.000+02:00</time>
      </trkpt>
      <trkpt lat="42.63523" lon="-2.85768">
        <ele>480.5</ele>
        <time>2023-07-14T22:53:32.000+02:00</time>
      </trkpt>
      <trkpt lat="42.63566" lon="-2.85784">
        <ele>476</ele>
        <time>2023-07-14T22:53:39.000+02:00</time>
      </trkpt>
      <trkpt lat="42.6359" lon="-2.85767">
        <ele>471</ele>
        <time>2023-07-14T22:53:43.000+02:00</time>
      </trkpt>
      <trkpt lat="42.63598" lon="-2.85771">
        <ele>470</ele>
        <time>2023-07-14T22:53:44.000+02:00</time>
      </trkpt>
      <trkpt lat="42.63601" lon="-2.85807">
        <ele>472.5</ele>
        <time>2023-07-14T22:53:48.000+02:00</time>
      </trkpt>
      <trkpt lat="42.63612" lon="-2.85811">
        <ele>471.5</ele>
        <time>2023-07-14T22:53:50.000+02:00</time>
      </trkpt>
      <trkpt lat="42.63623" lon="-2.85802">
        <ele>469.3</ele>
        <time>2023-07-14T22:53:52.000+02:00</time>
      </trkpt>
      <trkpt lat="42.63631" lon="-2.85818">
        <ele>469.8</ele>
        <time>2023-07-14T22:53:54.000+02:00</time>
      </trkpt>
      <trkpt lat="42.63675" lon="-2.85867">
        <ele>466.8</ele>
        <time>2023-07-14T22:54:03.000+02:00</time>
      </trkpt>
      <trkpt lat="42.63676" lon="-2.85884">
        <ele>467.5</ele>
        <time>2023-07-14T22:54:05.000+02:00</time>
      </trkpt>
      <trkpt lat="42.63658" lon="-2.85938">
        <ele>470.5</ele>
        <time>2023-07-14T22:54:11.000+02:00</time>
      </trkpt>
      <trkpt lat="42.63661" lon="-2.8595">
        <ele>470.8</ele>
        <time>2023-07-14T22:54:13.000+02:00</time>
      </trkpt>
    </trkseg>
  </trk>
</gpx>